createdAt,value
2019-05-22T00:02:37.756Z,26.33
2019-05-22T00:05:14.305Z,26.80
2019-05-22T00:07:45.387Z,24.67
2019-05-22T00:10:19.221Z,23.98
2019-05-22T00:12:50.021Z,24.92
2019-05-22T00:15:21.092Z,23.15
2019-05-22T00:17:53.712Z,24.05
2019-05-22T00:20:24.774Z,26.25
2019-05-22T00:22:54.994Z,23.17
2019-05-22T00:25:26.520Z,22.20
2019-05-22T00:27:56.744Z,22.95
2019-05-22T00:30:27.272Z,20.55
2019-05-22T00:32:57.511Z,22.27
2019-05-22T00:35:27.090Z,20.68
2019-05-22T00:37:57.106Z,19.85
2019-05-22T00:40:29.395Z,19.90
2019-05-22T00:43:03.994Z,18.95
2019-05-22T00:45:31.960Z,25.95
2019-05-22T00:48:03.022Z,24.10
2019-05-22T00:50:40.503Z,29.32
2019-05-22T00:53:29.250Z,27.27
2019-05-22T00:56:02.016Z,25.17
2019-05-22T00:58:40.086Z,24.70
2019-05-22T01:01:14.715Z,23.55
2019-05-22T01:03:46.026Z,23.62
2019-05-22T01:06:15.943Z,23.35
2019-05-22T01:08:48.344Z,23.55
2019-05-22T01:11:21.289Z,24.50
2019-05-22T01:13:51.550Z,22.52
2019-05-22T01:16:22.969Z,22.45
2019-05-22T01:18:53.581Z,22.40
2019-05-22T01:21:25.796Z,22.15
2019-05-22T01:23:59.956Z,22.05
2019-05-22T01:26:29.612Z,19.37
2019-05-22T01:28:59.410Z,19.27
2019-05-22T01:31:37.420Z,17.77
2019-05-22T01:34:16.097Z,19.37
2019-05-22T01:36:48.987Z,18.57
2019-05-22T01:39:31.437Z,19.20
2019-05-22T01:42:04.193Z,18.82
2019-05-22T01:44:34.652Z,17.73
2019-05-22T01:47:10.688Z,15.28
2019-05-22T01:49:44.592Z,17.60
2019-05-22T01:52:15.696Z,18.50
2019-05-22T01:54:45.313Z,16.57
2019-05-22T01:57:16.003Z,16.63
2019-05-22T01:59:47.049Z,16.48
2019-05-22T02:02:18.806Z,15.40
2019-05-22T02:04:48.293Z,18.92
2019-05-22T02:07:17.722Z,17.10
2019-05-22T02:09:48.984Z,20.02
2019-05-22T02:12:28.141Z,19.15
2019-05-22T02:14:57.828Z,17.42
2019-05-22T02:17:35.465Z,17.67
2019-05-22T02:20:08.293Z,17.30
2019-05-22T02:22:40.792Z,16.57
2019-05-22T02:25:13.393Z,17.40
2019-05-22T02:27:42.759Z,17.12
2019-05-22T02:30:14.317Z,12.30
2019-05-22T02:32:45.704Z,13.43
2019-05-22T02:35:15.224Z,11.80
2019-05-22T02:37:45.083Z,9.33
2019-05-22T02:40:20.098Z,9.70
2019-05-22T02:42:50.586Z,8.50
2019-05-22T02:45:20.174Z,8.47
2019-05-22T02:47:50.282Z,7.87
2019-05-22T02:50:19.856Z,7.58
2019-05-22T02:52:50.238Z,7.80
2019-05-22T02:55:19.842Z,8.05
2019-05-22T02:57:50.203Z,7.90
2019-05-22T03:00:19.919Z,7.58
2019-05-22T03:02:53.649Z,6.60
2019-05-22T03:05:24.982Z,6.50
2019-05-22T03:07:54.555Z,6.50
2019-05-22T03:10:26.675Z,6.97
2019-05-22T03:12:58.401Z,6.70
2019-05-22T03:15:28.069Z,6.72
2019-05-22T03:18:04.798Z,7.55
2019-05-22T03:20:35.886Z,6.90
2019-05-22T03:23:41.177Z,5.90
2019-05-22T03:26:13.118Z,6.03
2019-05-22T03:28:42.897Z,6.20
2019-05-22T03:31:13.758Z,5.45
2019-05-22T03:33:44.312Z,5.87
2019-05-22T03:36:20.959Z,5.60
2019-05-22T03:38:51.671Z,6.90
2019-05-22T03:41:21.726Z,6.15
2019-05-22T03:43:53.404Z,6.10
2019-05-22T03:46:35.965Z,7.07
2019-05-22T03:49:06.138Z,7.10
2019-05-22T03:51:36.098Z,6.20
2019-05-22T03:54:06.593Z,7.12
2019-05-22T03:56:42.317Z,6.73
2019-05-22T03:59:13.667Z,6.12
2019-05-22T04:01:45.008Z,5.97
2019-05-22T04:04:21.293Z,7.07
2019-05-22T04:06:52.274Z,6.70
2019-05-22T04:09:26.857Z,6.50
2019-05-22T04:11:57.111Z,6.22
2019-05-22T04:14:35.551Z,5.87
2019-05-22T04:17:07.742Z,6.92
2019-05-22T04:19:49.296Z,7.53
2019-05-22T04:22:14.601Z,6.40
2019-05-22T04:24:46.115Z,5.53
2019-05-22T04:27:17.012Z,6.43
2019-05-22T04:29:47.814Z,10.47
2019-05-22T04:32:23.449Z,9.20
2019-05-22T04:34:53.064Z,6.07
2019-05-22T04:37:22.474Z,6.30
2019-05-22T04:39:54.944Z,8.43
2019-05-22T04:42:26.851Z,11.27
2019-05-22T04:45:12.286Z,6.40
2019-05-22T04:47:48.164Z,13.60
2019-05-22T04:50:24.841Z,12.30
2019-05-22T04:52:56.195Z,15.30
2019-05-22T04:55:27.044Z,8.93
2019-05-22T04:58:00.932Z,8.50
2019-05-22T05:00:31.834Z,8.27
2019-05-22T05:03:02.220Z,7.60
2019-05-22T05:05:39.599Z,8.10
2019-05-22T05:08:09.745Z,12.00
2019-05-22T05:10:40.037Z,10.30
2019-05-22T05:13:09.515Z,10.83
2019-05-22T05:15:39.013Z,8.17
2019-05-22T05:18:08.835Z,9.47
2019-05-22T05:20:38.186Z,8.10
2019-05-22T05:23:07.585Z,10.00
2019-05-22T05:25:37.085Z,8.43
2019-05-22T05:28:08.760Z,8.27
2019-05-22T05:30:38.622Z,7.27
2019-05-22T05:33:08.147Z,5.00
2019-05-22T05:35:38.361Z,7.90
2019-05-22T05:38:07.770Z,7.77
2019-05-22T05:40:40.211Z,6.23
2019-05-22T05:43:15.161Z,9.37
2019-05-22T05:45:46.952Z,4.57
2019-05-22T05:48:23.553Z,9.93
2019-05-22T05:51:45.173Z,5.03
2019-05-22T05:54:16.004Z,7.20
2019-05-22T05:56:48.358Z,5.23
2019-05-22T05:59:18.859Z,5.13
2019-05-22T06:01:54.663Z,4.30
2019-05-22T06:04:36.612Z,7.53
2019-05-22T06:07:25.364Z,5.47
2019-05-22T06:10:22.082Z,3.97
2019-05-22T06:12:51.647Z,5.63
2019-05-22T06:15:24.563Z,9.50
2019-05-22T06:18:32.675Z,8.40
2019-05-22T06:21:04.168Z,4.63
2019-05-22T06:24:22.130Z,5.93
2019-05-22T06:27:22.154Z,8.30
2019-05-22T06:30:03.970Z,12.33
2019-05-22T06:33:34.062Z,8.63
2019-05-22T06:36:07.404Z,5.30
2019-05-22T06:39:03.051Z,5.50
2019-05-22T06:41:37.471Z,4.47
2019-05-22T06:44:39.704Z,8.67
2019-05-22T06:47:20.465Z,5.90
2019-05-22T06:49:54.349Z,5.57
2019-05-22T06:52:25.146Z,7.83
2019-05-22T06:54:55.663Z,6.43
2019-05-22T06:57:30.747Z,10.03
2019-05-22T07:00:14.042Z,8.20
2019-05-22T07:02:35.386Z,4.83
2019-05-22T07:05:07.054Z,6.13
2019-05-22T07:07:36.386Z,5.97
2019-05-22T07:10:09.131Z,5.03
2019-05-22T07:12:39.294Z,7.23
2019-05-22T07:15:50.227Z,7.67
2019-05-22T07:18:20.854Z,6.13
2019-05-22T07:20:50.859Z,5.13
2019-05-22T07:23:25.324Z,5.40
2019-05-22T07:25:56.599Z,4.20
2019-05-22T07:28:26.694Z,3.93
2019-05-22T07:30:56.800Z,5.03
2019-05-22T07:33:26.477Z,4.47
2019-05-22T07:36:09.261Z,4.00
2019-05-22T07:38:27.880Z,4.30
2019-05-22T07:40:58.065Z,5.10
2019-05-22T07:43:27.689Z,8.20
2019-05-22T07:45:57.735Z,5.97
2019-05-22T07:48:28.909Z,8.20
2019-05-22T07:50:59.504Z,6.10
2019-05-22T07:53:29.615Z,5.60
2019-05-22T07:56:02.537Z,7.90
2019-05-22T07:58:33.072Z,10.43
2019-05-22T08:01:03.502Z,5.23
2019-05-22T08:03:34.158Z,6.67
2019-05-22T08:06:05.891Z,4.97
2019-05-22T08:08:36.987Z,5.87
2019-05-22T08:11:07.788Z,5.63
2019-05-22T08:13:38.562Z,18.37
2019-05-22T08:16:09.660Z,4.57
2019-05-22T08:18:41.441Z,4.03
2019-05-22T08:21:11.687Z,6.43
2019-05-22T08:23:41.225Z,5.43
2019-05-22T08:26:12.903Z,5.67
2019-05-22T08:28:42.422Z,5.30
2019-05-22T08:31:13.051Z,6.37
2019-05-22T08:33:42.828Z,6.60
2019-05-22T08:36:12.839Z,6.30
2019-05-22T08:38:44.560Z,6.70
2019-05-22T08:41:16.095Z,6.40
2019-05-22T08:44:13.782Z,7.27
2019-05-22T08:46:18.632Z,7.00
2019-05-22T08:48:49.330Z,5.47
2019-05-22T08:51:19.619Z,3.77
2019-05-22T08:53:49.100Z,5.37
2019-05-22T08:56:19.627Z,4.70
2019-05-22T08:58:49.983Z,5.00
2019-05-22T09:01:19.457Z,5.73
2019-05-22T09:03:48.986Z,5.33
2019-05-22T09:06:18.472Z,4.07
2019-05-22T09:08:47.914Z,4.40
2019-05-22T09:11:17.311Z,4.63
2019-05-22T09:13:46.675Z,6.13
2019-05-22T09:16:16.437Z,6.70
2019-05-22T09:18:46.325Z,5.17
2019-05-22T09:21:16.567Z,5.70
2019-05-22T09:23:46.627Z,3.47
2019-05-22T09:26:17.301Z,3.80
2019-05-22T09:28:47.055Z,3.30
2019-05-22T09:31:17.735Z,6.13
2019-05-22T09:33:47.193Z,5.37
2019-05-22T09:36:17.130Z,3.40
2019-05-22T09:38:46.721Z,6.00
2019-05-22T09:41:16.433Z,3.47
2019-05-22T09:43:45.992Z,3.70
2019-05-22T09:46:16.414Z,5.33
2019-05-22T09:48:45.925Z,3.67
2019-05-22T09:51:15.281Z,4.57
2019-05-22T09:53:44.632Z,6.87
2019-05-22T09:56:14.349Z,4.87
2019-05-22T09:58:43.713Z,4.97
2019-05-22T10:01:13.164Z,5.00
2019-05-22T10:03:43.059Z,5.07
2019-05-22T10:06:12.954Z,5.57
2019-05-22T10:08:42.485Z,6.73
2019-05-22T10:11:12.399Z,6.43
2019-05-22T10:13:42.062Z,5.07
2019-05-22T10:16:11.757Z,3.53
2019-05-22T10:18:41.733Z,5.27
2019-05-22T10:21:11.159Z,5.60
2019-05-22T10:23:40.871Z,6.53
2019-05-22T10:26:11.027Z,5.13
2019-05-22T10:28:41.007Z,5.53
2019-05-22T10:31:11.702Z,4.13
2019-05-22T10:33:42.068Z,7.70
2019-05-22T10:36:11.848Z,5.83
2019-05-22T10:38:41.753Z,3.70
2019-05-22T10:41:11.731Z,4.27
2019-05-22T10:43:46.467Z,5.87
2019-05-22T10:46:28.747Z,3.93
2019-05-22T10:49:32.026Z,4.63
2019-05-22T10:52:12.953Z,4.10
2019-05-22T10:54:42.541Z,4.67
2019-05-22T10:57:12.469Z,4.70
2019-05-22T10:59:42.756Z,4.63
2019-05-22T11:02:12.527Z,5.85
2019-05-22T11:04:43.903Z,6.00
2019-05-22T11:07:13.945Z,6.30
2019-05-22T11:09:44.826Z,5.03
2019-05-22T11:12:15.504Z,4.92
2019-05-22T11:14:47.155Z,5.17
2019-05-22T11:17:16.700Z,6.10
2019-05-22T11:19:46.223Z,4.55
2019-05-22T11:22:16.928Z,5.03
2019-05-22T11:24:46.553Z,4.40
2019-05-22T11:27:18.218Z,5.75
2019-05-22T11:29:51.615Z,4.83
2019-05-22T11:32:21.734Z,3.70
2019-05-22T11:34:51.383Z,4.17
2019-05-22T11:37:21.119Z,3.97
2019-05-22T11:39:52.203Z,4.37
2019-05-22T11:42:31.129Z,4.03
2019-05-22T11:45:00.826Z,4.50
2019-05-22T11:47:30.319Z,3.90
2019-05-22T11:49:59.825Z,6.13
2019-05-22T11:52:31.337Z,4.53
2019-05-22T11:55:01.216Z,3.30
2019-05-22T11:57:31.342Z,4.30
2019-05-22T12:00:01.019Z,3.67
2019-05-22T12:02:30.574Z,4.40
2019-05-22T12:05:00.172Z,3.70
2019-05-22T12:07:30.024Z,10.20
2019-05-22T12:10:00.084Z,5.27
2019-05-22T12:12:29.796Z,4.27
2019-05-22T12:14:59.447Z,3.10
2019-05-22T12:17:37.877Z,4.43
2019-05-22T12:20:01.078Z,4.03
2019-05-22T12:22:30.820Z,5.10
2019-05-22T12:25:00.641Z,4.43
2019-05-22T12:27:31.137Z,4.97
2019-05-22T12:30:00.932Z,4.07
2019-05-22T12:32:32.186Z,4.10
2019-05-22T12:35:01.812Z,4.83
2019-05-22T12:37:31.828Z,3.00
2019-05-22T12:40:01.767Z,3.10
2019-05-22T12:42:31.517Z,3.67
2019-05-22T12:45:00.996Z,6.03
2019-05-22T12:47:30.870Z,4.70
2019-05-22T12:50:00.577Z,3.40
2019-05-22T12:52:30.079Z,3.10
2019-05-22T12:55:00.164Z,3.07
2019-05-22T12:57:30.499Z,2.90
2019-05-22T13:00:02.760Z,3.37
2019-05-22T13:02:34.103Z,2.53
2019-05-22T13:05:04.183Z,3.93
2019-05-22T13:07:33.738Z,4.23
2019-05-22T13:10:03.236Z,3.23
2019-05-22T13:12:32.742Z,3.40
2019-05-22T13:15:09.600Z,2.43
2019-05-22T13:17:34.144Z,2.73
2019-05-22T13:20:04.705Z,2.27
2019-05-22T13:22:36.603Z,2.57
2019-05-22T13:25:08.394Z,3.47
2019-05-22T13:27:39.593Z,2.73
2019-05-22T13:30:12.098Z,2.37
2019-05-22T13:32:43.965Z,2.87
2019-05-22T13:35:15.263Z,3.20
2019-05-22T13:37:44.862Z,2.30
2019-05-22T13:40:27.209Z,2.60
2019-05-22T13:42:47.682Z,3.00
2019-05-22T13:45:28.402Z,2.57
2019-05-22T13:47:49.397Z,2.73
2019-05-22T13:50:21.267Z,4.90
2019-05-22T13:52:51.261Z,3.90
2019-05-22T13:55:21.481Z,2.90
2019-05-22T13:57:51.735Z,3.77
2019-05-22T14:00:23.353Z,4.27
2019-05-22T14:02:52.801Z,2.23
2019-05-22T14:05:23.423Z,3.37
2019-05-22T14:07:52.776Z,4.10
2019-05-22T14:10:23.999Z,3.03
2019-05-22T14:12:53.500Z,2.60
2019-05-22T14:15:23.683Z,3.23
2019-05-22T14:17:53.289Z,2.90
2019-05-22T14:20:22.881Z,2.63
2019-05-22T14:22:52.330Z,3.77
2019-05-22T14:25:22.797Z,2.80
2019-05-22T14:27:52.334Z,3.50
2019-05-22T14:30:24.254Z,5.13
2019-05-22T14:32:53.713Z,5.90
2019-05-22T14:35:25.804Z,3.70
2019-05-22T14:38:00.158Z,3.87
2019-05-22T14:40:31.688Z,3.53
2019-05-22T14:43:01.600Z,2.13
2019-05-22T14:45:31.272Z,2.73
2019-05-22T14:48:00.806Z,3.00
2019-05-22T14:50:32.908Z,4.43
2019-05-22T14:53:03.111Z,3.73
2019-05-22T14:55:34.680Z,3.27
2019-05-22T14:58:05.914Z,5.10
2019-05-22T15:00:38.013Z,3.17
2019-05-22T15:03:08.609Z,3.27
2019-05-22T15:05:38.575Z,4.17
2019-05-22T15:08:09.017Z,4.13
2019-05-22T15:10:38.687Z,3.47
2019-05-22T15:13:08.562Z,3.07
2019-05-22T15:15:40.406Z,4.53
2019-05-22T15:18:09.601Z,4.23
2019-05-22T15:20:58.347Z,3.20
2019-05-22T15:23:28.260Z,2.60
2019-05-22T15:25:57.626Z,3.00
2019-05-22T15:28:27.280Z,3.00
2019-05-22T15:30:58.878Z,6.60
2019-05-22T15:33:30.501Z,3.03
2019-05-22T15:36:00.107Z,5.17
2019-05-22T15:38:31.038Z,3.33
2019-05-22T15:41:02.191Z,2.40
2019-05-22T15:43:34.503Z,4.17
2019-05-22T15:46:08.074Z,3.27
2019-05-22T15:48:41.927Z,4.63
2019-05-22T15:51:12.616Z,4.47
2019-05-22T15:53:43.531Z,5.73
2019-05-22T15:56:13.405Z,4.47
2019-05-22T15:58:46.886Z,4.27
2019-05-22T16:01:22.701Z,3.30
2019-05-22T16:03:53.546Z,5.17
2019-05-22T16:06:26.326Z,3.33
2019-05-22T16:08:56.476Z,1.60
2019-05-22T16:11:28.346Z,3.47
2019-05-22T16:14:00.952Z,4.00
2019-05-22T16:16:32.319Z,5.97
2019-05-22T16:19:07.722Z,4.87
2019-05-22T16:21:46.465Z,3.60
2019-05-22T16:24:25.572Z,2.30
2019-05-22T16:26:55.596Z,4.70
2019-05-22T16:29:26.215Z,4.70
2019-05-22T16:31:58.263Z,4.40
2019-05-22T16:34:29.269Z,4.27
2019-05-22T16:37:03.227Z,6.37
2019-05-22T16:39:31.562Z,4.57
2019-05-22T16:42:07.195Z,6.17
2019-05-22T16:44:37.151Z,4.03
2019-05-22T16:47:07.827Z,3.90
2019-05-22T16:49:37.820Z,5.03
2019-05-22T16:52:09.006Z,4.67
2019-05-22T16:54:39.812Z,6.77
2019-05-22T16:57:10.409Z,5.47
2019-05-22T16:59:40.903Z,5.83
2019-05-22T17:02:14.140Z,5.77
2019-05-22T17:04:43.765Z,6.23
2019-05-22T17:07:16.506Z,5.20
2019-05-22T17:09:47.566Z,7.33
2019-05-22T17:12:19.502Z,4.40
2019-05-22T17:14:49.827Z,5.27
2019-05-22T17:17:20.540Z,6.27
2019-05-22T17:19:50.459Z,7.43
2019-05-22T17:22:20.752Z,7.30
2019-05-22T17:25:31.324Z,8.47
2019-05-22T17:28:01.059Z,9.23
2019-05-22T17:30:32.637Z,8.40
2019-05-22T17:33:03.045Z,6.67
2019-05-22T17:35:34.339Z,9.97
2019-05-22T17:38:05.329Z,7.13
2019-05-22T17:40:37.265Z,13.10
2019-05-22T17:43:09.444Z,9.93
2019-05-22T17:45:42.998Z,7.10
2019-05-22T17:48:14.552Z,8.30
2019-05-22T17:50:45.268Z,8.93
2019-05-22T17:53:15.209Z,7.80
2019-05-22T17:55:46.755Z,9.30
2019-05-22T17:58:17.649Z,9.00
2019-05-22T18:00:49.146Z,9.73
2019-05-22T18:03:19.401Z,10.80
2019-05-22T18:05:49.018Z,10.40
2019-05-22T18:08:20.426Z,8.57
2019-05-22T18:10:51.227Z,8.95
2019-05-22T18:13:21.194Z,10.48
2019-05-22T18:16:04.488Z,9.33
2019-05-22T18:18:34.365Z,9.83
2019-05-22T18:21:10.632Z,7.97
2019-05-22T18:23:40.049Z,8.40
2019-05-22T18:26:10.301Z,9.27
2019-05-22T18:28:39.937Z,10.07
2019-05-22T18:31:09.542Z,8.27
2019-05-22T18:33:39.387Z,7.87
2019-05-22T18:36:09.211Z,8.27
2019-05-22T18:38:38.985Z,11.00
2019-05-22T18:41:08.591Z,10.17
2019-05-22T18:43:38.179Z,9.43
2019-05-22T18:46:07.810Z,13.23
2019-05-22T18:48:37.470Z,9.80
2019-05-22T18:51:09.661Z,12.27
2019-05-22T18:53:40.090Z,9.13
2019-05-22T18:56:11.072Z,11.30
2019-05-22T18:58:40.763Z,11.07
2019-05-22T19:01:10.385Z,11.77
2019-05-22T19:03:39.813Z,10.37
2019-05-22T19:06:09.825Z,11.10
2019-05-22T19:08:39.820Z,11.87
2019-05-22T19:11:09.492Z,11.63
2019-05-22T19:13:39.125Z,9.00
2019-05-22T19:16:08.764Z,11.20
2019-05-22T19:18:38.613Z,13.70
2019-05-22T19:21:08.587Z,9.37
2019-05-22T19:23:38.244Z,12.43
2019-05-22T19:26:07.938Z,10.80
2019-05-22T19:28:43.386Z,14.60
2019-05-22T19:31:09.364Z,9.10
2019-05-22T19:33:39.151Z,10.10
2019-05-22T19:36:09.101Z,11.73
2019-05-22T19:38:38.638Z,14.20
2019-05-22T19:41:08.498Z,10.90
2019-05-22T19:43:38.050Z,8.57
2019-05-22T19:46:08.729Z,9.83
2019-05-22T19:48:38.542Z,10.47
2019-05-22T19:51:08.636Z,9.40
2019-05-22T19:53:38.250Z,13.73
2019-05-22T19:56:08.625Z,11.67
2019-05-22T19:58:38.574Z,12.07
2019-05-22T20:01:09.818Z,12.63
2019-05-22T20:03:42.934Z,11.17
2019-05-22T20:06:13.022Z,7.87
2019-05-22T20:08:43.601Z,10.67
2019-05-22T20:11:13.341Z,11.70
2019-05-22T20:13:43.748Z,10.97
2019-05-22T20:16:14.284Z,10.37
2019-05-22T20:18:44.112Z,11.07
2019-05-22T20:21:14.269Z,11.47
2019-05-22T20:23:45.269Z,11.17
2019-05-22T20:26:16.205Z,12.13
2019-05-22T20:28:46.152Z,9.60
2019-05-22T20:31:16.201Z,10.00
2019-05-22T20:33:46.816Z,9.97
2019-05-22T20:36:17.100Z,10.90
2019-05-22T20:38:47.572Z,8.80
2019-05-22T20:41:18.312Z,11.23
2019-05-22T20:43:50.069Z,11.80
2019-05-22T20:46:21.917Z,8.10
2019-05-22T20:48:51.170Z,9.33
2019-05-22T20:51:22.090Z,9.67
2019-05-22T20:53:54.993Z,11.30
2019-05-22T20:56:27.726Z,9.60
2019-05-22T20:58:58.385Z,8.90
2019-05-22T21:01:28.094Z,8.23
2019-05-22T21:04:01.171Z,8.37
2019-05-22T21:06:34.060Z,10.73
2019-05-22T21:09:07.867Z,7.97
2019-05-22T21:11:39.138Z,9.47
2019-05-22T21:14:09.043Z,8.13
2019-05-22T21:16:39.962Z,7.80
2019-05-22T21:19:10.132Z,7.27
2019-05-22T21:21:39.944Z,7.63
2019-05-22T21:24:12.237Z,5.93
2019-05-22T21:26:42.636Z,6.53
2019-05-22T21:29:12.651Z,5.70
2019-05-22T21:31:42.625Z,6.10
2019-05-22T21:34:12.759Z,5.90
2019-05-22T21:36:42.639Z,6.40
2019-05-22T21:39:13.134Z,6.77
2019-05-22T21:41:48.789Z,7.07
2019-05-22T21:44:18.335Z,6.63
2019-05-22T21:46:47.992Z,6.30
2019-05-22T21:49:19.257Z,6.37
2019-05-22T21:51:49.133Z,8.03
2019-05-22T21:54:19.107Z,6.40
2019-05-22T21:56:49.909Z,6.50
2019-05-22T21:59:19.851Z,7.10
2019-05-22T22:02:20.884Z,7.27
2019-05-22T22:04:51.448Z,8.53
2019-05-22T22:07:21.088Z,8.40
2019-05-22T22:09:51.094Z,10.80
2019-05-22T22:12:24.305Z,8.13
2019-05-22T22:14:54.669Z,9.53
2019-05-22T22:17:26.618Z,8.87
2019-05-22T22:19:56.462Z,9.17
2019-05-22T22:22:30.709Z,7.40
2019-05-22T22:25:00.775Z,7.60
2019-05-22T22:27:31.135Z,7.87
2019-05-22T22:30:02.329Z,7.20
2019-05-22T22:32:33.673Z,7.20
2019-05-22T22:35:03.820Z,7.67
2019-05-22T22:37:33.670Z,6.67
2019-05-22T22:40:04.806Z,7.33
2019-05-22T22:42:36.924Z,8.03
2019-05-22T22:45:11.351Z,7.50
2019-05-22T22:47:46.167Z,8.13
2019-05-22T22:50:18.038Z,6.50
2019-05-22T22:52:48.635Z,7.37
2019-05-22T22:55:20.095Z,7.43
2019-05-22T22:57:51.337Z,8.20
2019-05-22T23:00:29.671Z,8.30
2019-05-22T23:03:00.381Z,7.80
2019-05-22T23:05:32.042Z,10.43
2019-05-22T23:08:02.303Z,7.17
2019-05-22T23:10:32.641Z,8.90
2019-05-22T23:13:03.636Z,8.50
2019-05-22T23:15:33.110Z,8.03
2019-05-22T23:18:03.227Z,8.20
2019-05-22T23:20:31.428Z,7.27
2019-05-22T23:23:00.632Z,6.70
2019-05-22T23:25:31.347Z,8.63
2019-05-22T23:28:02.642Z,6.60
2019-05-22T23:30:32.142Z,8.07
2019-05-22T23:33:05.396Z,10.50
2019-05-22T23:35:35.516Z,7.37
2019-05-22T23:38:05.062Z,7.07
2019-05-22T23:40:36.389Z,9.10
2019-05-22T23:43:07.282Z,7.63
2019-05-22T23:45:37.211Z,9.47
2019-05-22T23:48:14.141Z,6.93
2019-05-22T23:50:44.730Z,10.18
2019-05-22T23:53:16.232Z,10.88
2019-05-22T23:55:46.393Z,11.65
2019-05-22T23:58:17.478Z,10.97
